首页
METAR-TAF:

METAR-TAF

机场 :

博弗尚, 比利时

纬度: 50-45N, 经度: 004-46E, 海拔: 105米

当前天气观测

该预报发布于27分钟前的06:55 UTC
风速1节,风向多变
温度 0°C
湿度 86%
气压 1011 hPa
能見度: 9000

METAR: EBBE 170655Z AUTO VRB01KT 9000 SCT240/// M00/M02 Q1011 BLU

时间: 08:22 (07:22 UTC)


TAF: 丢失

超过4000个机场的气象观测和天气预报(METAR&TAF报告)。

可查询的气象台以黄色和红色小点在地图上表示。

将鼠标移到小点上方,可查看气象台名称。

然后点击查看天气观测和预报。

如需切换地图:点击带黑十字的绿色按钮放大地图;点击带横线的绿色按钮缩小地图;或者点击绿色箭头查看邻近地区的地图。


METAR-TAF: